createdAt,value
2023-04-15T00:00:35.687Z,484.9231
2023-04-15T00:01:36.756Z,487.4615
2023-04-15T00:02:37.890Z,490.1538
2023-04-15T00:03:39.123Z,491.3077
2023-04-15T00:04:39.857Z,492.7692
2023-04-15T00:05:40.935Z,490.4615
2023-04-15T00:06:41.934Z,491.1538
2023-04-15T00:07:43.720Z,493.3846
2023-04-15T00:08:43.875Z,494.3077
2023-04-15T00:09:44.952Z,493.0769
2023-04-15T00:10:46.017Z,493.2308
2023-04-15T00:11:47.029Z,491.6923
2023-04-15T00:12:48.059Z,494.6923
2023-04-15T00:13:49.104Z,494.9231
2023-04-15T00:14:50.185Z,495.0000
2023-04-15T00:15:51.240Z,494.6923
2023-04-15T00:16:52.340Z,494.0000
2023-04-15T00:17:53.286Z,494.2308
2023-04-15T00:18:54.343Z,492.8462
2023-04-15T00:19:55.358Z,491.9231
2023-04-15T00:20:56.464Z,491.4615
2023-04-15T00:21:57.453Z,493.6154
2023-04-15T00:22:58.506Z,494.3846
2023-04-15T00:23:59.533Z,493.3077
2023-04-15T00:25:00.577Z,492.6923
2023-04-15T00:26:01.667Z,493.0000
2023-04-15T00:27:02.698Z,494.8462
2023-04-15T00:28:03.700Z,495.0000
2023-04-15T00:29:04.749Z,494.0769
2023-04-15T00:30:05.783Z,492.9231
2023-04-15T00:31:06.884Z,491.4615
2023-04-15T00:32:07.900Z,489.8462
2023-04-15T00:33:08.923Z,490.1538
2023-04-15T00:34:09.988Z,490.7692
2023-04-15T00:35:11.048Z,490.2308
2023-04-15T00:36:12.071Z,489.6923
2023-04-15T00:37:13.081Z,488.1538
2023-04-15T00:38:14.157Z,487.6154
2023-04-15T00:39:15.239Z,489.3846
2023-04-15T00:40:16.230Z,488.6154
2023-04-15T00:41:17.326Z,487.5385
2023-04-15T00:42:18.364Z,488.0000
2023-04-15T00:43:19.365Z,488.4615
2023-04-15T00:44:20.399Z,487.6923
2023-04-15T00:45:21.434Z,488.2308
2023-04-15T00:46:22.542Z,488.3077
2023-04-15T00:47:23.621Z,489.8462
2023-04-15T00:48:24.568Z,491.7692
2023-04-15T00:49:25.624Z,491.4615
2023-04-15T00:50:26.693Z,492.1538
2023-04-15T00:51:27.708Z,491.2308
2023-04-15T00:52:28.825Z,491.0000
2023-04-15T00:53:29.834Z,490.7692
2023-04-15T00:54:30.843Z,490.9231
2023-04-15T00:55:31.925Z,490.0769
2023-04-15T00:56:32.987Z,488.6923
2023-04-15T00:57:34.111Z,489.6154
2023-04-15T00:58:35.143Z,490.8462
2023-04-15T00:59:36.195Z,489.4615
2023-04-15T01:00:37.230Z,487.5385
2023-04-15T01:01:38.322Z,487.6923
2023-04-15T01:02:39.598Z,487.6923
2023-04-15T01:03:40.467Z,488.3846
2023-04-15T01:04:41.393Z,487.9231
2023-04-15T01:05:42.442Z,488.6154
2023-04-15T01:06:43.534Z,485.7692
2023-04-15T01:07:44.596Z,485.0769
2023-04-15T01:08:45.626Z,488.1538
2023-04-15T01:09:46.594Z,490.9231
2023-04-15T01:10:47.666Z,490.0769
2023-04-15T01:11:48.724Z,487.7692
2023-04-15T01:12:49.733Z,486.6923
2023-04-15T01:13:50.828Z,485.2308
2023-04-15T01:14:51.833Z,484.4615
2023-04-15T01:15:52.845Z,484.4615
2023-04-15T01:16:53.860Z,486.9231
2023-04-15T01:17:55.029Z,494.0769
2023-04-15T01:18:55.947Z,492.6923
2023-04-15T01:19:57.015Z,491.1538
2023-04-15T01:20:58.031Z,489.3077
2023-04-15T01:21:59.072Z,488.5385
2023-04-15T01:23:00.263Z,489.3077
2023-04-15T01:24:01.170Z,488.7692
2023-04-15T01:25:02.202Z,489.0769
2023-04-15T01:26:03.272Z,488.5385
2023-04-15T01:27:04.278Z,489.4615
2023-04-15T01:28:05.383Z,487.9231
2023-04-15T01:29:06.344Z,485.8462
2023-04-15T01:30:07.453Z,487.0769
2023-04-15T01:31:08.518Z,487.3077
2023-04-15T01:32:09.472Z,487.0769
2023-04-15T01:33:10.531Z,489.0769
2023-04-15T01:34:11.555Z,489.0769
2023-04-15T01:35:12.608Z,488.6154
2023-04-15T01:36:13.613Z,487.5385
2023-04-15T01:37:14.650Z,487.3846
2023-04-15T01:38:15.730Z,485.3846
2023-04-15T01:39:16.829Z,485.5385
2023-04-15T01:40:17.778Z,484.0000
2023-04-15T01:41:18.833Z,482.1538
2023-04-15T01:42:19.850Z,482.2308
2023-04-15T01:43:20.926Z,482.6923
2023-04-15T01:44:21.932Z,482.3846
2023-04-15T01:45:22.951Z,480.6154
2023-04-15T01:46:24.021Z,479.8462
2023-04-15T01:47:25.072Z,478.6923
2023-04-15T01:48:26.145Z,477.3077
2023-04-15T01:49:27.127Z,476.4615
2023-04-15T01:50:28.090Z,477.0000
2023-04-15T01:51:29.144Z,478.6923
2023-04-15T01:52:30.171Z,478.7692
2023-04-15T01:53:31.226Z,480.2308
2023-04-15T01:54:32.262Z,479.2308
2023-04-15T01:55:33.318Z,481.5385
2023-04-15T01:56:34.351Z,480.6923
2023-04-15T01:57:35.372Z,483.4615
2023-04-15T01:58:36.472Z,487.8462
2023-04-15T01:59:37.473Z,486.9231
2023-04-15T02:00:38.539Z,484.4615
2023-04-15T02:01:39.573Z,486.0000
2023-04-15T02:02:40.746Z,486.9231
2023-04-15T02:03:41.781Z,486.0000
2023-04-15T02:04:42.685Z,483.9231
2023-04-15T02:05:43.702Z,483.0769
2023-04-15T02:06:44.731Z,481.3077
2023-04-15T02:07:45.769Z,479.6923
2023-04-15T02:08:46.869Z,478.3077
2023-04-15T02:09:47.876Z,479.1538
2023-04-15T02:10:48.915Z,478.6154
2023-04-15T02:11:49.977Z,480.3077
2023-04-15T02:12:51.014Z,482.6923
2023-04-15T02:13:52.096Z,482.3846
2023-04-15T02:14:53.102Z,483.8462
2023-04-15T02:15:54.140Z,483.3846
2023-04-15T02:16:55.242Z,481.9231
2023-04-15T02:17:56.228Z,481.0769
2023-04-15T02:18:57.283Z,481.2308
2023-04-15T02:19:58.280Z,484.6923
2023-04-15T02:20:59.393Z,485.3077
2023-04-15T02:22:00.372Z,486.6154
2023-04-15T02:23:01.424Z,487.3077
2023-04-15T02:24:02.500Z,484.3846
2023-04-15T02:25:03.531Z,484.6923
2023-04-15T02:26:04.539Z,485.5385
2023-04-15T02:27:05.556Z,485.2308
2023-04-15T02:28:06.622Z,487.2308
2023-04-15T02:29:07.661Z,486.0769
2023-04-15T02:30:08.683Z,486.4615
2023-04-15T02:31:09.775Z,484.3846
2023-04-15T02:32:10.914Z,484.5385
2023-04-15T02:33:11.838Z,486.0769
2023-04-15T02:34:12.898Z,488.7692
2023-04-15T02:35:13.996Z,490.8462
2023-04-15T02:36:14.961Z,493.6154
2023-04-15T02:37:16.017Z,494.3846
2023-04-15T02:38:17.089Z,493.9231
2023-04-15T02:39:18.085Z,487.8462
2023-04-15T02:40:19.239Z,487.2308
2023-04-15T02:41:20.321Z,486.6923
2023-04-15T02:42:21.314Z,485.4615
2023-04-15T02:43:22.356Z,483.6154
2023-04-15T02:44:23.378Z,480.4615
2023-04-15T02:45:24.505Z,478.3077
2023-04-15T02:46:25.588Z,478.0000
2023-04-15T02:47:26.593Z,476.0769
2023-04-15T02:48:27.557Z,475.4615
2023-04-15T02:49:28.752Z,472.1538
2023-04-15T02:50:30.071Z,472.0769
2023-04-15T02:51:30.870Z,471.8462
2023-04-15T02:52:31.754Z,469.1538
2023-04-15T02:53:32.831Z,467.9231
2023-04-15T02:54:33.840Z,467.2308
2023-04-15T02:55:34.916Z,466.7692
2023-04-15T02:56:35.912Z,465.0769
2023-04-15T02:57:36.989Z,464.5385
2023-04-15T02:58:37.995Z,464.5385
2023-04-15T02:59:39.037Z,461.9231
2023-04-15T03:00:40.151Z,460.3077
2023-04-15T03:01:41.088Z,461.6923
2023-04-15T03:02:42.461Z,462.6154
2023-04-15T03:03:43.380Z,464.0000
2023-04-15T03:04:44.350Z,461.0769
2023-04-15T03:05:45.410Z,463.7692
2023-04-15T03:06:46.369Z,464.8462
2023-04-15T03:07:47.424Z,462.9231
2023-04-15T03:08:48.549Z,463.6154
2023-04-15T03:09:49.515Z,463.8462
2023-04-15T03:10:50.572Z,463.7692
2023-04-15T03:11:51.573Z,463.8462
2023-04-15T03:12:52.619Z,462.5385
2023-04-15T03:13:53.689Z,461.6154
2023-04-15T03:14:54.718Z,462.2308
2023-04-15T03:15:55.887Z,461.7692
2023-04-15T03:16:56.830Z,461.7692
2023-04-15T03:17:57.930Z,458.3846
2023-04-15T03:18:59.020Z,458.3846
2023-04-15T03:19:59.964Z,459.6923
2023-04-15T03:21:01.027Z,460.4615
2023-04-15T03:22:02.016Z,460.3846
2023-04-15T03:23:03.058Z,459.5385
2023-04-15T03:24:04.200Z,458.1538
2023-04-15T03:25:05.145Z,459.5385
2023-04-15T03:26:06.238Z,460.7692
2023-04-15T03:27:07.294Z,461.9231
2023-04-15T03:28:08.276Z,460.8462
2023-04-15T03:29:09.318Z,459.5385
2023-04-15T03:30:10.334Z,460.2308
2023-04-15T03:31:11.458Z,457.9231
2023-04-15T03:32:12.508Z,456.8462
2023-04-15T03:33:13.400Z,458.0000
2023-04-15T03:34:14.441Z,459.0769
2023-04-15T03:35:15.491Z,457.5385
2023-04-15T03:36:16.569Z,455.9231
2023-04-15T03:37:17.574Z,456.2308
2023-04-15T03:38:18.597Z,459.0000
2023-04-15T03:39:19.651Z,460.0000
2023-04-15T03:40:20.685Z,460.0769
2023-04-15T03:41:21.756Z,459.7692
2023-04-15T03:42:22.766Z,460.6154
2023-04-15T03:43:23.778Z,461.9231
2023-04-15T03:44:24.854Z,460.7692
2023-04-15T03:45:25.855Z,458.7692
2023-04-15T03:46:26.962Z,459.4615
2023-04-15T03:47:27.971Z,460.1538
2023-04-15T03:48:29.005Z,458.2308
2023-04-15T03:49:30.025Z,457.6923
2023-04-15T03:50:31.054Z,456.6923
2023-04-15T03:51:32.126Z,459.0769
2023-04-15T03:52:33.151Z,461.6923
2023-04-15T03:53:34.187Z,460.3846
2023-04-15T03:54:35.238Z,459.0000
2023-04-15T03:55:36.297Z,459.5385
2023-04-15T03:56:37.379Z,460.0000
2023-04-15T03:57:38.390Z,458.0000
2023-04-15T03:58:39.433Z,455.7692
2023-04-15T03:59:40.476Z,457.0000
2023-04-15T04:00:41.575Z,454.6154
2023-04-15T04:01:42.688Z,455.0769
2023-04-15T04:02:43.726Z,457.3077
2023-04-15T04:03:44.813Z,458.4615
2023-04-15T04:04:45.714Z,459.8462
2023-04-15T04:05:46.754Z,459.0769
2023-04-15T04:06:47.828Z,459.3077
2023-04-15T04:07:48.821Z,459.3077
2023-04-15T04:08:49.873Z,461.6154
2023-04-15T04:09:50.934Z,462.3846
2023-04-15T04:10:51.953Z,462.0000
2023-04-15T04:11:53.033Z,462.6923
2023-04-15T04:12:54.039Z,462.2308
2023-04-15T04:13:55.133Z,463.0000
2023-04-15T04:14:56.170Z,462.7692
2023-04-15T04:15:57.334Z,465.4615
2023-04-15T04:16:58.335Z,466.1538
2023-04-15T04:17:59.326Z,467.1538
2023-04-15T04:19:00.612Z,465.0769
2023-04-15T04:20:01.381Z,463.0769
2023-04-15T04:21:02.390Z,464.2308
2023-04-15T04:22:03.516Z,463.0000
2023-04-15T04:23:04.467Z,463.6154
2023-04-15T04:24:05.672Z,467.8462
2023-04-15T04:25:06.705Z,468.9231
2023-04-15T04:26:07.772Z,469.6923
2023-04-15T04:27:08.829Z,469.4615
2023-04-15T04:28:09.837Z,471.0769
2023-04-15T04:29:10.869Z,468.2308
2023-04-15T04:30:11.933Z,466.4615
2023-04-15T04:31:13.054Z,465.1538
2023-04-15T04:32:14.123Z,463.6154
2023-04-15T04:33:15.075Z,465.2308
2023-04-15T04:34:16.074Z,464.8462
2023-04-15T04:35:17.153Z,465.7692
2023-04-15T04:36:18.375Z,465.1538
2023-04-15T04:37:19.301Z,465.3077
2023-04-15T04:38:20.281Z,464.0000
2023-04-15T04:39:21.389Z,464.5385
2023-04-15T04:40:22.371Z,467.5385
2023-04-15T04:41:23.374Z,467.8462
2023-04-15T04:42:24.545Z,465.9231
2023-04-15T04:43:25.487Z,463.6923
2023-04-15T04:44:26.649Z,460.2308
2023-04-15T04:45:27.557Z,458.2308
2023-04-15T04:46:28.634Z,458.5385
2023-04-15T04:47:29.782Z,457.3077
2023-04-15T04:48:30.705Z,457.0000
2023-04-15T04:49:31.722Z,459.3077
2023-04-15T04:50:32.771Z,459.7692
2023-04-15T04:51:33.828Z,457.9231
2023-04-15T04:52:34.975Z,457.5385
2023-04-15T04:53:35.931Z,456.7692
2023-04-15T04:54:36.972Z,456.5385
2023-04-15T04:55:38.028Z,457.8462
2023-04-15T04:56:39.070Z,460.6154
2023-04-15T04:57:40.168Z,461.4615
2023-04-15T04:58:41.108Z,461.1538
2023-04-15T04:59:42.209Z,462.3846
2023-04-15T05:00:43.199Z,459.7692
2023-04-15T05:01:44.474Z,458.2308
2023-04-15T05:02:45.515Z,459.2308
2023-04-15T05:03:46.422Z,459.1538
2023-04-15T05:04:47.365Z,454.6923
2023-04-15T05:05:48.508Z,454.7692
2023-04-15T05:06:49.533Z,456.3846
2023-04-15T05:07:50.547Z,451.0769
2023-04-15T05:08:51.537Z,452.3077
2023-04-15T05:09:52.663Z,452.6154
2023-04-15T05:10:53.616Z,454.6923
2023-04-15T05:11:54.723Z,456.0769
2023-04-15T05:12:55.805Z,458.0000
2023-04-15T05:13:56.794Z,459.0769
2023-04-15T05:14:57.829Z,458.7692
2023-04-15T05:15:58.924Z,458.0000
2023-04-15T05:17:00.454Z,459.0769
2023-04-15T05:18:00.934Z,459.8462
2023-04-15T05:19:02.179Z,458.6154
2023-04-15T05:20:02.967Z,456.9231
2023-04-15T05:21:04.035Z,455.0000
2023-04-15T05:22:05.059Z,455.5385
2023-04-15T05:23:06.159Z,457.1538
2023-04-15T05:24:07.137Z,456.3077
2023-04-15T05:25:08.190Z,451.8462
2023-04-15T05:26:09.240Z,453.3846
2023-04-15T05:27:10.261Z,454.8462
2023-04-15T05:28:11.372Z,455.3846
2023-04-15T05:29:12.349Z,455.2308
2023-04-15T05:30:13.842Z,456.7692
2023-04-15T05:31:14.513Z,456.9231
2023-04-15T05:32:15.491Z,456.8462
2023-04-15T05:33:16.603Z,459.3077
2023-04-15T05:34:17.562Z,458.3846
2023-04-15T05:35:18.640Z,457.3077
2023-04-15T05:36:19.659Z,458.0769
2023-04-15T05:37:20.700Z,458.4615
2023-04-15T05:38:21.774Z,456.5385
2023-04-15T05:39:22.775Z,456.6154
2023-04-15T05:40:23.840Z,456.3846
2023-04-15T05:41:24.878Z,459.4615
2023-04-15T05:42:25.916Z,456.0769
2023-04-15T05:43:26.993Z,457.3077
2023-04-15T05:44:28.054Z,457.2308
2023-04-15T05:45:29.059Z,456.9231
2023-04-15T05:46:30.144Z,457.0769
2023-04-15T05:47:31.147Z,457.6923
2023-04-15T05:48:32.192Z,457.9231
2023-04-15T05:49:33.185Z,459.0769
2023-04-15T05:50:34.260Z,460.1538
2023-04-15T05:51:35.297Z,458.8462
2023-04-15T05:52:36.323Z,457.5385
2023-04-15T05:53:37.452Z,456.1538
2023-04-15T05:54:38.971Z,457.6154
2023-04-15T05:55:39.478Z,458.1538
2023-04-15T05:56:40.492Z,458.6154
2023-04-15T05:57:41.574Z,458.5385
2023-04-15T05:58:42.617Z,458.5385
2023-04-15T05:59:43.614Z,460.7692
2023-04-15T06:00:44.678Z,458.4615
2023-04-15T06:01:45.710Z,459.0000
2023-04-15T06:02:46.961Z,459.6923
2023-04-15T06:03:47.938Z,457.9231
2023-04-15T06:04:48.846Z,458.4615
2023-04-15T06:05:49.894Z,460.4615
2023-04-15T06:06:50.918Z,459.0000
2023-04-15T06:07:52.017Z,460.1538
2023-04-15T06:08:53.112Z,460.1538
2023-04-15T06:09:54.129Z,459.3077
2023-04-15T06:10:55.198Z,456.5385
2023-04-15T06:11:56.220Z,459.0000
2023-04-15T06:12:57.192Z,460.9231
2023-04-15T06:13:58.352Z,463.7692
2023-04-15T06:15:00.235Z,466.8462
2023-04-15T06:16:00.429Z,473.0000
2023-04-15T06:17:01.436Z,477.4615
2023-04-15T06:18:02.540Z,479.1538
2023-04-15T06:19:03.510Z,476.7692
2023-04-15T06:20:04.468Z,475.7692
2023-04-15T06:21:05.509Z,477.8462
2023-04-15T06:22:06.560Z,474.6923
2023-04-15T06:23:07.554Z,474.7692
2023-04-15T06:24:08.704Z,473.2308
2023-04-15T06:25:09.626Z,471.6154
2023-04-15T06:26:10.747Z,465.6923
2023-04-15T06:27:11.723Z,460.6154
2023-04-15T06:28:12.752Z,459.5385
2023-04-15T06:29:13.850Z,456.9231
2023-04-15T06:30:14.827Z,454.5385
2023-04-15T06:31:15.863Z,452.0000
2023-04-15T06:32:16.949Z,452.6923
2023-04-15T06:33:17.989Z,451.3846
2023-04-15T06:34:19.014Z,450.0000
2023-04-15T06:35:20.054Z,449.9231
2023-04-15T06:36:21.076Z,452.3846
2023-04-15T06:37:22.131Z,453.0769
2023-04-15T06:38:23.151Z,453.9231
2023-04-15T06:39:24.267Z,453.6154
2023-04-15T06:40:25.303Z,455.0000
2023-04-15T06:41:26.269Z,454.0000
2023-04-15T06:42:27.307Z,453.4615
2023-04-15T06:43:28.333Z,451.6923
2023-04-15T06:44:29.403Z,451.5385
2023-04-15T06:45:30.511Z,451.4615
2023-04-15T06:46:31.471Z,450.6154
2023-04-15T06:47:32.516Z,449.4615
2023-04-15T06:48:33.510Z,448.4615
2023-04-15T06:49:34.628Z,446.1538
2023-04-15T06:50:35.662Z,447.5385
2023-04-15T06:51:36.664Z,446.9231
2023-04-15T06:52:37.706Z,444.0769
2023-04-15T06:53:38.715Z,442.2308
2023-04-15T06:54:39.818Z,441.3846
2023-04-15T06:55:40.830Z,444.4615
2023-04-15T06:56:41.813Z,444.0000
2023-04-15T06:57:42.875Z,445.8462
2023-04-15T06:58:43.947Z,444.0769
2023-04-15T06:59:44.902Z,444.6154
2023-04-15T07:00:45.957Z,448.0769
2023-04-15T07:01:46.956Z,449.0769
2023-04-15T07:02:48.056Z,447.0769
2023-04-15T07:03:49.128Z,446.8462
2023-04-15T07:04:50.149Z,447.5385
2023-04-15T07:05:51.135Z,447.8462
2023-04-15T07:06:52.223Z,448.3077
2023-04-15T07:07:53.253Z,449.7692
2023-04-15T07:08:54.288Z,449.6923
2023-04-15T07:09:55.343Z,448.0769
2023-04-15T07:10:56.359Z,448.3077
2023-04-15T07:11:57.397Z,448.6923
2023-04-15T07:12:58.401Z,449.0000
2023-04-15T07:13:59.475Z,449.7692
2023-04-15T07:15:00.516Z,449.6154
2023-04-15T07:16:01.650Z,450.4615
2023-04-15T07:17:02.608Z,453.0000
2023-04-15T07:18:03.621Z,453.1538
2023-04-15T07:19:04.817Z,453.0000
2023-04-15T07:20:05.684Z,451.6154
2023-04-15T07:21:06.710Z,451.3077
2023-04-15T07:22:07.777Z,452.0000
2023-04-15T07:23:08.982Z,451.2308
2023-04-15T07:24:09.799Z,450.8462
2023-04-15T07:25:11.183Z,449.6154
2023-04-15T07:26:11.933Z,449.0000
2023-04-15T07:27:12.944Z,446.7692
2023-04-15T07:28:13.973Z,444.2308
2023-04-15T07:29:15.020Z,445.7692
2023-04-15T07:30:16.062Z,447.5385
2023-04-15T07:31:17.184Z,449.3846
2023-04-15T07:32:18.128Z,453.2308
2023-04-15T07:33:19.171Z,454.5385
2023-04-15T07:34:20.399Z,452.3077
2023-04-15T07:35:21.233Z,448.9231
2023-04-15T07:36:22.323Z,447.3846
2023-04-15T07:37:23.332Z,447.7692
2023-04-15T07:38:24.375Z,448.8462
2023-04-15T07:39:25.411Z,447.6154
2023-04-15T07:40:26.493Z,443.8462
2023-04-15T07:41:27.572Z,442.2308
2023-04-15T07:42:28.537Z,445.2308
2023-04-15T07:43:29.595Z,445.2308
2023-04-15T07:44:30.619Z,444.7692
2023-04-15T07:45:31.680Z,446.5385
2023-04-15T07:46:32.774Z,445.7692
2023-04-15T07:47:33.787Z,446.3846
2023-04-15T07:48:35.610Z,447.4615
2023-04-15T07:49:35.916Z,444.6923
2023-04-15T07:50:36.991Z,441.3846
2023-04-15T07:51:38.069Z,443.6154
2023-04-15T07:52:39.057Z,447.6923
2023-04-15T07:53:40.118Z,448.1538
2023-04-15T07:54:41.138Z,447.3077
2023-04-15T07:55:42.184Z,446.8462
2023-04-15T07:56:43.280Z,445.3846
2023-04-15T07:57:44.214Z,445.4615
2023-04-15T07:58:45.260Z,447.6154
2023-04-15T07:59:46.299Z,450.5385
2023-04-15T08:00:47.392Z,448.6923
2023-04-15T08:01:48.477Z,446.3846
2023-04-15T08:02:49.553Z,445.8462
2023-04-15T08:03:50.671Z,445.5385
2023-04-15T08:04:51.704Z,445.4615
2023-04-15T08:05:52.619Z,446.4615
2023-04-15T08:06:53.636Z,444.9231
2023-04-15T08:07:54.641Z,445.0000
2023-04-15T08:08:55.747Z,444.3846
2023-04-15T08:09:56.680Z,444.8462
2023-04-15T08:10:57.766Z,444.1538
2023-04-15T08:11:58.837Z,445.2308
2023-04-15T08:12:59.899Z,446.0769
2023-04-15T08:14:00.835Z,446.2308
2023-04-15T08:15:01.924Z,445.4615
2023-04-15T08:16:03.005Z,445.5385
2023-04-15T08:17:04.038Z,446.2308
2023-04-15T08:18:05.020Z,445.5385
2023-04-15T08:19:06.046Z,444.2308
2023-04-15T08:20:07.082Z,438.3846
2023-04-15T08:21:08.159Z,437.8462
2023-04-15T08:22:15.371Z,441.6923
2023-04-15T08:23:10.166Z,444.4615
2023-04-15T08:24:11.261Z,447.0000
2023-04-15T08:25:12.246Z,446.1538
2023-04-15T08:26:13.388Z,447.4615
2023-04-15T08:27:14.433Z,449.6154
2023-04-15T08:28:15.410Z,448.5385
2023-04-15T08:29:16.437Z,449.3077
2023-04-15T08:30:17.479Z,451.9231
2023-04-15T08:31:18.557Z,449.6154
2023-04-15T08:32:19.636Z,448.9231
2023-04-15T08:33:20.593Z,448.5385
2023-04-15T08:34:21.626Z,447.0000
2023-04-15T08:35:22.806Z,445.7692
2023-04-15T08:36:23.736Z,443.3846
2023-04-15T08:37:24.668Z,444.3846
2023-04-15T08:38:25.710Z,444.3077
2023-04-15T08:39:26.732Z,443.8462
2023-04-15T08:40:27.795Z,439.4615
2023-04-15T08:41:28.814Z,438.3846
2023-04-15T08:42:29.915Z,439.6154
2023-04-15T08:43:30.892Z,442.0000
2023-04-15T08:44:31.972Z,443.2308
2023-04-15T08:45:32.998Z,442.9231
2023-04-15T08:46:34.032Z,440.6923
2023-04-15T08:47:35.073Z,440.4615
2023-04-15T08:48:36.057Z,438.8462
2023-04-15T08:49:37.100Z,439.0769
2023-04-15T08:50:38.142Z,437.1538
2023-04-15T08:51:39.187Z,438.0769
2023-04-15T08:52:40.261Z,438.7692
2023-04-15T08:53:41.266Z,441.2308
2023-04-15T08:54:42.308Z,442.1538
2023-04-15T08:55:43.309Z,443.1538
2023-04-15T08:56:44.414Z,442.0000
2023-04-15T08:57:45.450Z,442.0000
2023-04-15T08:58:46.465Z,439.5385
2023-04-15T08:59:47.528Z,437.1538
2023-04-15T09:00:48.650Z,430.3846
2023-04-15T09:01:49.628Z,447.4615
2023-04-15T09:02:50.730Z,452.7692
2023-04-15T09:03:51.777Z,451.8462
2023-04-15T09:04:52.921Z,453.6154
2023-04-15T09:05:53.762Z,459.3077
2023-04-15T09:06:54.782Z,458.9231
2023-04-15T09:07:55.935Z,456.0769
2023-04-15T09:08:56.861Z,453.6923
2023-04-15T09:09:57.923Z,451.3846
2023-04-15T09:10:58.990Z,450.0000
2023-04-15T09:11:59.998Z,452.9231
2023-04-15T09:13:01.089Z,452.3846
2023-04-15T09:14:02.080Z,453.9231
2023-04-15T09:15:03.141Z,454.2308
2023-04-15T09:16:04.232Z,451.0000
2023-04-15T09:17:05.295Z,448.7692
2023-04-15T09:18:06.264Z,452.3077
2023-04-15T09:19:07.265Z,454.0769
2023-04-15T09:20:08.300Z,453.8462
2023-04-15T09:21:09.638Z,453.3077
2023-04-15T09:22:10.357Z,449.8462
2023-04-15T09:23:11.484Z,448.8462
2023-04-15T09:24:12.433Z,448.9231
2023-04-15T09:25:13.514Z,446.7692
2023-04-15T09:26:14.510Z,449.7692
2023-04-15T09:27:15.544Z,454.5385
2023-04-15T09:28:16.619Z,458.0769
2023-04-15T09:29:17.622Z,456.9231
2023-04-15T09:30:18.685Z,454.8462
2023-04-15T09:31:19.747Z,451.4615
2023-04-15T09:32:20.712Z,451.6154
2023-04-15T09:33:21.906Z,449.4615
2023-04-15T09:34:22.956Z,448.5385
2023-04-15T09:35:23.929Z,448.4615
2023-04-15T09:36:24.986Z,449.4615
2023-04-15T09:37:32.395Z,449.6923
2023-04-15T09:38:27.117Z,447.6154
2023-04-15T09:39:28.113Z,445.8462
2023-04-15T09:40:29.152Z,443.9231
2023-04-15T09:41:30.199Z,439.2308
2023-04-15T09:42:31.238Z,439.2308
2023-04-15T09:43:32.292Z,439.2308
2023-04-15T09:44:33.314Z,443.8462
2023-04-15T09:45:34.337Z,445.5385
2023-04-15T09:46:35.433Z,445.9231
2023-04-15T09:47:36.492Z,443.4615
2023-04-15T09:48:37.602Z,444.2308
2023-04-15T09:49:38.578Z,447.4615
2023-04-15T09:50:39.562Z,446.5385
2023-04-15T09:51:41.340Z,447.4615
2023-04-15T09:52:41.634Z,445.3846
2023-04-15T09:53:42.710Z,445.1538
2023-04-15T09:54:43.695Z,443.1538
2023-04-15T09:55:44.745Z,443.5385
2023-04-15T09:56:45.806Z,442.2308
2023-04-15T09:57:46.828Z,444.1538
2023-04-15T09:58:47.912Z,441.6154
2023-04-15T09:59:48.873Z,437.6923
2023-04-15T10:00:49.973Z,436.6923
2023-04-15T10:01:51.075Z,435.3077
2023-04-15T10:02:52.056Z,430.3846
2023-04-15T10:03:53.115Z,429.7692
2023-04-15T10:04:54.110Z,433.1538
2023-04-15T10:05:55.163Z,433.7692
2023-04-15T10:06:56.158Z,435.8462
2023-04-15T10:07:57.247Z,435.9231
2023-04-15T10:08:58.253Z,437.9231
2023-04-15T10:09:59.271Z,439.8462
2023-04-15T10:11:00.277Z,439.6154
2023-04-15T10:12:01.324Z,442.6923
2023-04-15T10:13:02.356Z,442.3846
2023-04-15T10:14:03.745Z,441.3846
2023-04-15T10:15:04.423Z,442.9231
2023-04-15T10:16:05.483Z,444.1538
2023-04-15T10:17:06.478Z,442.4615
2023-04-15T10:18:07.766Z,440.8462
2023-04-15T10:19:08.523Z,436.8462
2023-04-15T10:20:09.516Z,435.5385
2023-04-15T10:21:10.543Z,435.8462
2023-04-15T10:22:11.616Z,434.8462
2023-04-15T10:23:13.462Z,437.3846
2023-04-15T10:24:13.696Z,439.9231
2023-04-15T10:25:14.702Z,445.0000
2023-04-15T10:26:15.734Z,442.7692
2023-04-15T10:27:16.788Z,442.6154
2023-04-15T10:28:17.810Z,445.0000
2023-04-15T10:29:18.882Z,444.3846
2023-04-15T10:30:19.899Z,444.6154
2023-04-15T10:31:20.971Z,441.3077
2023-04-15T10:32:21.991Z,442.1538
2023-04-15T10:33:23.006Z,441.8462
2023-04-15T10:34:24.061Z,439.3077
2023-04-15T10:35:25.095Z,438.6923
2023-04-15T10:36:26.108Z,436.2308
2023-04-15T10:37:27.188Z,438.0000
2023-04-15T10:38:28.206Z,438.2308
2023-04-15T10:39:29.279Z,438.4615
2023-04-15T10:40:30.302Z,436.9231
2023-04-15T10:41:31.387Z,436.3077
2023-04-15T10:42:32.385Z,436.0769
2023-04-15T10:43:33.379Z,434.0769
2023-04-15T10:44:34.471Z,433.5385
2023-04-15T10:45:35.505Z,436.5385
2023-04-15T10:46:36.564Z,438.2308
2023-04-15T10:47:37.597Z,435.6154
2023-04-15T10:48:38.610Z,434.0769
2023-04-15T10:49:39.626Z,434.7692
2023-04-15T10:50:40.732Z,434.6154
2023-04-15T10:51:41.756Z,435.3077
2023-04-15T10:52:42.738Z,438.5385
2023-04-15T10:53:43.801Z,441.0000
2023-04-15T10:54:44.806Z,440.8462
2023-04-15T10:55:45.867Z,441.6923
2023-04-15T10:56:46.899Z,440.5385
2023-04-15T10:57:47.934Z,440.2308
2023-04-15T10:58:48.998Z,439.3846
2023-04-15T10:59:50.029Z,431.9231
2023-04-15T11:00:51.068Z,435.1538
2023-04-15T11:01:52.194Z,436.0000
2023-04-15T11:02:53.161Z,433.9231
2023-04-15T11:03:54.325Z,437.1538
2023-04-15T11:04:55.560Z,440.0000
2023-04-15T11:05:56.316Z,440.3846
2023-04-15T11:06:57.303Z,438.6154
2023-04-15T11:07:58.364Z,435.9231
2023-04-15T11:08:59.463Z,435.0000
2023-04-15T11:10:00.434Z,435.6154
2023-04-15T11:11:01.512Z,434.2308
2023-04-15T11:12:02.503Z,434.9231
2023-04-15T11:13:03.552Z,436.8462
2023-04-15T11:14:04.733Z,437.9231
2023-04-15T11:15:05.605Z,439.3077
2023-04-15T11:16:06.748Z,437.3846
2023-04-15T11:17:07.760Z,438.0000
2023-04-15T11:18:08.907Z,437.4615
2023-04-15T11:19:09.883Z,434.7692
2023-04-15T11:20:10.913Z,434.6923
2023-04-15T11:21:12.035Z,434.3846
2023-04-15T11:22:12.949Z,433.3846
2023-04-15T11:23:15.015Z,430.7692
2023-04-15T11:24:15.104Z,433.3846
2023-04-15T11:25:16.075Z,430.6923
2023-04-15T11:26:17.187Z,430.5385
2023-04-15T11:27:18.183Z,432.5385
2023-04-15T11:28:19.181Z,433.3077
2023-04-15T11:29:20.239Z,434.0000
2023-04-15T11:30:21.302Z,436.8462
2023-04-15T11:31:22.461Z,435.6923
2023-04-15T11:32:23.415Z,441.0000
2023-04-15T11:33:24.447Z,442.0769
2023-04-15T11:34:25.449Z,440.7692
2023-04-15T11:35:26.533Z,437.5385
2023-04-15T11:36:27.614Z,435.6923
2023-04-15T11:37:28.592Z,432.9231
2023-04-15T11:38:29.640Z,433.0769
2023-04-15T11:39:30.686Z,435.6154
2023-04-15T11:40:31.761Z,435.5385
2023-04-15T11:41:32.830Z,435.0000
2023-04-15T11:42:48.571Z,434.9231
2023-04-15T11:43:34.853Z,434.2308
2023-04-15T11:44:35.887Z,433.8462
2023-04-15T11:45:37.039Z,434.3846
2023-04-15T11:46:37.882Z,434.0000
2023-04-15T11:47:38.926Z,431.0769
2023-04-15T11:48:39.937Z,431.7692
2023-04-15T11:49:40.982Z,430.6154
2023-04-15T11:50:42.022Z,429.6923
2023-04-15T11:51:43.103Z,429.4615
2023-04-15T11:52:44.102Z,430.6923
2023-04-15T11:53:45.123Z,430.9231
2023-04-15T11:54:46.193Z,431.5385
2023-04-15T11:55:47.220Z,430.0769
2023-04-15T11:56:48.282Z,429.6923